sensor_id;sensor_type;location;lat;lon;timestamp;temperature;humidity
17364;DHT22;8799;43.594;13.526;2023-05-19T00:01:10;18.90;99.90
17364;DHT22;8799;43.594;13.526;2023-05-19T00:03:48;18.90;99.90
17364;DHT22;8799;43.594;13.526;2023-05-19T00:06:21;18.90;99.90
17364;DHT22;8799;43.594;13.526;2023-05-19T00:08:49;18.90;99.90
17364;DHT22;8799;43.594;13.526;2023-05-19T00:11:21;18.90;99.90
17364;DHT22;8799;43.594;13.526;2023-05-19T00:13:50;18.90;99.90
17364;DHT22;8799;43.594;13.526;2023-05-19T00:16:19;18.90;99.90
17364;DHT22;8799;43.594;13.526;2023-05-19T00:18:47;18.90;99.90
17364;DHT22;8799;43.594;13.526;2023-05-19T00:21:15;18.90;99.90
17364;DHT22;8799;43.594;13.526;2023-05-19T00:23:43;18.90;99.90
17364;DHT22;8799;43.594;13.526;2023-05-19T00:26:11;19.00;99.90
17364;DHT22;8799;43.594;13.526;2023-05-19T00:28:41;18.90;99.90
17364;DHT22;8799;43.594;13.526;2023-05-19T00:31:09;18.90;99.90
17364;DHT22;8799;43.594;13.526;2023-05-19T00:33:38;18.90;99.90
17364;DHT22;8799;43.594;13.526;2023-05-19T00:36:07;18.90;99.90
17364;DHT22;8799;43.594;13.526;2023-05-19T00:38:37;18.90;99.90
17364;DHT22;8799;43.594;13.526;2023-05-19T00:41:06;18.90;99.90
17364;DHT22;8799;43.594;13.526;2023-05-19T00:43:34;18.90;99.90
17364;DHT22;8799;43.594;13.526;2023-05-19T00:46:03;18.90;99.90
17364;DHT22;8799;43.594;13.526;2023-05-19T00:48:32;18.90;99.90
17364;DHT22;8799;43.594;13.526;2023-05-19T00:51:00;18.90;99.90
17364;DHT22;8799;43.594;13.526;2023-05-19T00:53:31;18.90;99.90
17364;DHT22;8799;43.594;13.526;2023-05-19T00:56:00;18.90;99.90
17364;DHT22;8799;43.594;13.526;2023-05-19T00:58:29;18.90;99.90
17364;DHT22;8799;43.594;13.526;2023-05-19T01:00:57;18.90;99.90
17364;DHT22;8799;43.594;13.526;2023-05-19T01:03:31;18.90;99.90
17364;DHT22;8799;43.594;13.526;2023-05-19T01:06:00;18.90;99.90
17364;DHT22;8799;43.594;13.526;2023-05-19T01:08:30;19.00;99.90
17364;DHT22;8799;43.594;13.526;2023-05-19T01:10:58;19.00;99.90
17364;DHT22;8799;43.594;13.526;2023-05-19T01:13:27;19.00;99.90
17364;DHT22;8799;43.594;13.526;2023-05-19T01:16:25;19.00;99.90
17364;DHT22;8799;43.594;13.526;2023-05-19T01:19:00;19.00;99.90
17364;DHT22;8799;43.594;13.526;2023-05-19T01:21:55;19.00;99.90
17364;DHT22;8799;43.594;13.526;2023-05-19T01:24:50;19.00;99.90
17364;DHT22;8799;43.594;13.526;2023-05-19T01:30:44;19.00;99.90
17364;DHT22;8799;43.594;13.526;2023-05-19T01:33:13;19.00;99.90
17364;DHT22;8799;43.594;13.526;2023-05-19T01:35:42;19.00;99.90
17364;DHT22;8799;43.594;13.526;2023-05-19T01:38:11;19.00;99.90
17364;DHT22;8799;43.594;13.526;2023-05-19T01:40:40;19.00;99.90
17364;DHT22;8799;43.594;13.526;2023-05-19T01:43:17;19.00;99.90
17364;DHT22;8799;43.594;13.526;2023-05-19T01:45:48;19.00;99.90
17364;DHT22;8799;43.594;13.526;2023-05-19T01:48:15;19.00;99.90
17364;DHT22;8799;43.594;13.526;2023-05-19T01:50:44;19.00;99.90
17364;DHT22;8799;43.594;13.526;2023-05-19T01:53:12;19.00;99.90
17364;DHT22;8799;43.594;13.526;2023-05-19T01:55:44;19.00;99.90
17364;DHT22;8799;43.594;13.526;2023-05-19T01:58:17;19.00;99.90
17364;DHT22;8799;43.594;13.526;2023-05-19T02:01:02;19.00;99.90
17364;DHT22;8799;43.594;13.526;2023-05-19T02:03:42;19.00;99.90
17364;DHT22;8799;43.594;13.526;2023-05-19T02:06:22;19.00;99.90
17364;DHT22;8799;43.594;13.526;2023-05-19T02:08:57;19.00;99.90
17364;DHT22;8799;43.594;13.526;2023-05-19T02:11:33;19.00;99.90
17364;DHT22;8799;43.594;13.526;2023-05-19T02:14:05;19.00;99.90
17364;DHT22;8799;43.594;13.526;2023-05-19T02:16:36;19.00;99.90
17364;DHT22;8799;43.594;13.526;2023-05-19T02:19:05;19.00;99.90
17364;DHT22;8799;43.594;13.526;2023-05-19T02:21:33;19.00;99.90
17364;DHT22;8799;43.594;13.526;2023-05-19T02:24:01;19.00;99.90
17364;DHT22;8799;43.594;13.526;2023-05-19T02:26:29;19.00;99.90
17364;DHT22;8799;43.594;13.526;2023-05-19T02:28:57;19.00;99.90
17364;DHT22;8799;43.594;13.526;2023-05-19T02:31:25;19.00;99.90
17364;DHT22;8799;43.594;13.526;2023-05-19T02:33:54;19.00;99.90
17364;DHT22;8799;43.594;13.526;2023-05-19T02:36:22;19.00;99.90
17364;DHT22;8799;43.594;13.526;2023-05-19T02:38:51;19.00;99.90
17364;DHT22;8799;43.594;13.526;2023-05-19T02:41:19;19.00;99.90
17364;DHT22;8799;43.594;13.526;2023-05-19T02:43:46;19.00;99.90
17364;DHT22;8799;43.594;13.526;2023-05-19T02:46:14;19.00;99.90
17364;DHT22;8799;43.594;13.526;2023-05-19T02:48:43;19.00;99.90
17364;DHT22;8799;43.594;13.526;2023-05-19T02:51:12;19.00;99.90
17364;DHT22;8799;43.594;13.526;2023-05-19T02:53:40;19.00;99.90
17364;DHT22;8799;43.594;13.526;2023-05-19T02:56:08;19.00;99.90
17364;DHT22;8799;43.594;13.526;2023-05-19T02:58:35;19.00;99.90
17364;DHT22;8799;43.594;13.526;2023-05-19T03:01:03;19.00;99.90
17364;DHT22;8799;43.594;13.526;2023-05-19T03:03:32;19.00;99.90
17364;DHT22;8799;43.594;13.526;2023-05-19T03:06:00;19.00;99.90
17364;DHT22;8799;43.594;13.526;2023-05-19T03:08:29;19.00;99.90
17364;DHT22;8799;43.594;13.526;2023-05-19T03:10:58;19.00;99.90
17364;DHT22;8799;43.594;13.526;2023-05-19T03:13:29;19.00;99.90
17364;DHT22;8799;43.594;13.526;2023-05-19T03:15:57;19.00;99.90
17364;DHT22;8799;43.594;13.526;2023-05-19T03:18:26;19.00;99.90
17364;DHT22;8799;43.594;13.526;2023-05-19T03:20:54;19.00;99.90
17364;DHT22;8799;43.594;13.526;2023-05-19T03:23:23;19.00;99.90
17364;DHT22;8799;43.594;13.526;2023-05-19T03:25:56;19.00;99.90
17364;DHT22;8799;43.594;13.526;2023-05-19T03:28:24;19.00;99.90
17364;DHT22;8799;43.594;13.526;2023-05-19T03:30:53;19.00;99.90
17364;DHT22;8799;43.594;13.526;2023-05-19T03:33:21;19.00;99.90
17364;DHT22;8799;43.594;13.526;2023-05-19T03:35:49;19.00;99.90
17364;DHT22;8799;43.594;13.526;2023-05-19T03:38:18;19.00;99.90
17364;DHT22;8799;43.594;13.526;2023-05-19T03:40:45;19.00;99.90
17364;DHT22;8799;43.594;13.526;2023-05-19T03:43:14;19.00;99.90
17364;DHT22;8799;43.594;13.526;2023-05-19T03:45:42;19.00;99.90
17364;DHT22;8799;43.594;13.526;2023-05-19T03:48:09;19.00;99.90
17364;DHT22;8799;43.594;13.526;2023-05-19T03:50:37;19.00;99.90
17364;DHT22;8799;43.594;13.526;2023-05-19T03:53:05;19.00;99.90
17364;DHT22;8799;43.594;13.526;2023-05-19T03:55:34;19.00;99.90
17364;DHT22;8799;43.594;13.526;2023-05-19T03:58:02;19.00;99.90
17364;DHT22;8799;43.594;13.526;2023-05-19T04:00:32;19.00;99.90
17364;DHT22;8799;43.594;13.526;2023-05-19T04:03:00;19.00;99.90
17364;DHT22;8799;43.594;13.526;2023-05-19T04:05:28;19.00;99.90
17364;DHT22;8799;43.594;13.526;2023-05-19T04:07:56;19.00;99.90
17364;DHT22;8799;43.594;13.526;2023-05-19T04:10:24;19.00;99.90
17364;DHT22;8799;43.594;13.526;2023-05-19T04:12:52;19.00;99.90
17364;DHT22;8799;43.594;13.526;2023-05-19T04:15:20;19.00;99.90
17364;DHT22;8799;43.594;13.526;2023-05-19T04:17:50;19.00;99.90
17364;DHT22;8799;43.594;13.526;2023-05-19T04:20:18;19.00;99.90
17364;DHT22;8799;43.594;13.526;2023-05-19T04:22:46;19.00;99.90
17364;DHT22;8799;43.594;13.526;2023-05-19T04:25:14;19.00;99.90
17364;DHT22;8799;43.594;13.526;2023-05-19T04:27:42;19.00;99.90
17364;DHT22;8799;43.594;13.526;2023-05-19T04:30:11;19.00;99.90
17364;DHT22;8799;43.594;13.526;2023-05-19T04:32:41;19.00;99.90
17364;DHT22;8799;43.594;13.526;2023-05-19T04:35:11;19.00;99.90
17364;DHT22;8799;43.594;13.526;2023-05-19T04:37:39;19.00;99.90
17364;DHT22;8799;43.594;13.526;2023-05-19T04:40:07;19.00;99.90
17364;DHT22;8799;43.594;13.526;2023-05-19T04:42:35;19.00;99.90
17364;DHT22;8799;43.594;13.526;2023-05-19T04:45:06;19.00;99.90
17364;DHT22;8799;43.594;13.526;2023-05-19T04:47:34;19.00;99.90
17364;DHT22;8799;43.594;13.526;2023-05-19T04:50:03;19.00;99.90
17364;DHT22;8799;43.594;13.526;2023-05-19T04:52:33;19.00;99.90
17364;DHT22;8799;43.594;13.526;2023-05-19T04:55:00;19.00;99.90
17364;DHT22;8799;43.594;13.526;2023-05-19T04:57:29;19.00;99.90
17364;DHT22;8799;43.594;13.526;2023-05-19T04:59:56;19.00;99.90
17364;DHT22;8799;43.594;13.526;2023-05-19T05:02:24;19.00;99.90
17364;DHT22;8799;43.594;13.526;2023-05-19T05:04:53;19.00;99.90
17364;DHT22;8799;43.594;13.526;2023-05-19T05:07:21;19.00;99.90
17364;DHT22;8799;43.594;13.526;2023-05-19T05:09:51;19.00;99.90
17364;DHT22;8799;43.594;13.526;2023-05-19T05:12:20;19.00;99.90
17364;DHT22;8799;43.594;13.526;2023-05-19T05:14:48;19.00;99.90
17364;DHT22;8799;43.594;13.526;2023-05-19T05:17:17;19.00;99.90
17364;DHT22;8799;43.594;13.526;2023-05-19T05:19:45;19.00;99.90
17364;DHT22;8799;43.594;13.526;2023-05-19T05:22:13;19.00;99.90
17364;DHT22;8799;43.594;13.526;2023-05-19T05:24:42;19.00;99.90
17364;DHT22;8799;43.594;13.526;2023-05-19T05:27:12;19.00;99.90
17364;DHT22;8799;43.594;13.526;2023-05-19T05:29:39;19.00;99.90
17364;DHT22;8799;43.594;13.526;2023-05-19T05:32:07;19.00;99.90
17364;DHT22;8799;43.594;13.526;2023-05-19T05:34:42;19.00;99.90
17364;DHT22;8799;43.594;13.526;2023-05-19T05:37:10;19.00;99.90
17364;DHT22;8799;43.594;13.526;2023-05-19T05:39:38;19.00;99.90
17364;DHT22;8799;43.594;13.526;2023-05-19T05:42:06;19.00;99.90
17364;DHT22;8799;43.594;13.526;2023-05-19T05:44:37;19.00;99.90
17364;DHT22;8799;43.594;13.526;2023-05-19T05:47:06;19.00;99.90
17364;DHT22;8799;43.594;13.526;2023-05-19T05:49:34;19.00;99.90
17364;DHT22;8799;43.594;13.526;2023-05-19T05:52:04;19.10;99.90
17364;DHT22;8799;43.594;13.526;2023-05-19T05:54:33;19.00;99.90
17364;DHT22;8799;43.594;13.526;2023-05-19T05:57:02;19.00;99.90
17364;DHT22;8799;43.594;13.526;2023-05-19T05:59:30;19.00;99.90
17364;DHT22;8799;43.594;13.526;2023-05-19T06:02:00;19.00;99.90
17364;DHT22;8799;43.594;13.526;2023-05-19T06:04:28;19.00;99.90
17364;DHT22;8799;43.594;13.526;2023-05-19T06:06:55;19.00;99.90
17364;DHT22;8799;43.594;13.526;2023-05-19T06:09:26;19.00;99.90
17364;DHT22;8799;43.594;13.526;2023-05-19T06:11:56;19.00;99.90
17364;DHT22;8799;43.594;13.526;2023-05-19T06:14:25;19.00;99.90
17364;DHT22;8799;43.594;13.526;2023-05-19T06:16:53;19.00;99.90
17364;DHT22;8799;43.594;13.526;2023-05-19T06:19:22;19.00;99.90
17364;DHT22;8799;43.594;13.526;2023-05-19T06:21:50;19.00;99.90
17364;DHT22;8799;43.594;13.526;2023-05-19T06:24:19;19.00;99.90
17364;DHT22;8799;43.594;13.526;2023-05-19T06:26:47;19.00;99.90
17364;DHT22;8799;43.594;13.526;2023-05-19T06:29:15;19.00;99.90
17364;DHT22;8799;43.594;13.526;2023-05-19T06:31:43;19.00;99.90
17364;DHT22;8799;43.594;13.526;2023-05-19T06:34:11;19.00;99.90
17364;DHT22;8799;43.594;13.526;2023-05-19T06:36:43;19.00;99.90
17364;DHT22;8799;43.594;13.526;2023-05-19T06:39:11;19.00;99.90
17364;DHT22;8799;43.594;13.526;2023-05-19T06:41:39;19.00;99.90
17364;DHT22;8799;43.594;13.526;2023-05-19T06:44:06;19.00;99.90
17364;DHT22;8799;43.594;13.526;2023-05-19T06:46:35;19.00;99.90
17364;DHT22;8799;43.594;13.526;2023-05-19T06:49:03;19.00;99.90
17364;DHT22;8799;43.594;13.526;2023-05-19T06:51:31;19.00;99.90
17364;DHT22;8799;43.594;13.526;2023-05-19T06:54:01;19.00;99.90
17364;DHT22;8799;43.594;13.526;2023-05-19T06:56:29;19.00;99.90
17364;DHT22;8799;43.594;13.526;2023-05-19T06:58:57;18.90;99.90
17364;DHT22;8799;43.594;13.526;2023-05-19T07:01:25;18.90;99.90
17364;DHT22;8799;43.594;13.526;2023-05-19T07:03:53;19.00;99.90
17364;DHT22;8799;43.594;13.526;2023-05-19T07:06:20;18.90;99.90
17364;DHT22;8799;43.594;13.526;2023-05-19T07:08:48;18.90;99.90
17364;DHT22;8799;43.594;13.526;2023-05-19T07:11:17;18.90;99.90
17364;DHT22;8799;43.594;13.526;2023-05-19T07:13:45;18.90;99.90
17364;DHT22;8799;43.594;13.526;2023-05-19T07:16:13;18.90;99.90
17364;DHT22;8799;43.594;13.526;2023-05-19T07:18:41;18.90;99.90
17364;DHT22;8799;43.594;13.526;2023-05-19T07:21:09;18.90;99.90
17364;DHT22;8799;43.594;13.526;2023-05-19T07:23:36;18.90;99.90
17364;DHT22;8799;43.594;13.526;2023-05-19T07:26:04;18.90;99.90
17364;DHT22;8799;43.594;13.526;2023-05-19T07:28:34;18.90;99.90
17364;DHT22;8799;43.594;13.526;2023-05-19T07:31:02;18.90;99.90
17364;DHT22;8799;43.594;13.526;2023-05-19T07:33:30;18.90;99.90
17364;DHT22;8799;43.594;13.526;2023-05-19T07:35:58;18.90;99.90
17364;DHT22;8799;43.594;13.526;2023-05-19T07:38:26;18.90;99.90
17364;DHT22;8799;43.594;13.526;2023-05-19T07:40:53;18.90;99.90
17364;DHT22;8799;43.594;13.526;2023-05-19T07:43:21;18.90;99.90
17364;DHT22;8799;43.594;13.526;2023-05-19T07:45:51;18.90;99.90
17364;DHT22;8799;43.594;13.526;2023-05-19T07:48:41;18.90;99.90
17364;DHT22;8799;43.594;13.526;2023-05-19T07:51:10;18.90;99.90
17364;DHT22;8799;43.594;13.526;2023-05-19T07:53:38;18.90;99.90
17364;DHT22;8799;43.594;13.526;2023-05-19T07:56:06;18.90;99.90
17364;DHT22;8799;43.594;13.526;2023-05-19T07:58:38;18.90;99.90
17364;DHT22;8799;43.594;13.526;2023-05-19T08:01:08;18.90;99.90
17364;DHT22;8799;43.594;13.526;2023-05-19T08:03:37;18.90;99.90
17364;DHT22;8799;43.594;13.526;2023-05-19T08:06:05;18.90;99.90
17364;DHT22;8799;43.594;13.526;2023-05-19T08:08:33;18.90;99.90
17364;DHT22;8799;43.594;13.526;2023-05-19T08:11:01;18.90;99.90
17364;DHT22;8799;43.594;13.526;2023-05-19T08:13:30;18.90;99.90
17364;DHT22;8799;43.594;13.526;2023-05-19T08:15:58;18.90;99.90
17364;DHT22;8799;43.594;13.526;2023-05-19T08:18:28;18.90;99.90
17364;DHT22;8799;43.594;13.526;2023-05-19T08:20:56;18.90;99.90
17364;DHT22;8799;43.594;13.526;2023-05-19T08:23:24;18.90;99.90
17364;DHT22;8799;43.594;13.526;2023-05-19T08:25:51;18.90;99.90
17364;DHT22;8799;43.594;13.526;2023-05-19T08:28:20;18.90;99.90
17364;DHT22;8799;43.594;13.526;2023-05-19T08:30:50;18.90;99.90
17364;DHT22;8799;43.594;13.526;2023-05-19T08:33:17;18.90;99.90
17364;DHT22;8799;43.594;13.526;2023-05-19T08:35:47;18.90;99.90
17364;DHT22;8799;43.594;13.526;2023-05-19T08:38:15;18.90;99.90
17364;DHT22;8799;43.594;13.526;2023-05-19T08:40:45;18.90;99.90
17364;DHT22;8799;43.594;13.526;2023-05-19T08:43:14;18.80;99.90
17364;DHT22;8799;43.594;13.526;2023-05-19T08:45:43;18.90;99.90
17364;DHT22;8799;43.594;13.526;2023-05-19T08:48:13;18.90;99.90
17364;DHT22;8799;43.594;13.526;2023-05-19T08:50:49;18.90;99.90
17364;DHT22;8799;43.594;13.526;2023-05-19T08:53:19;18.90;99.90
17364;DHT22;8799;43.594;13.526;2023-05-19T08:55:57;18.90;99.90
17364;DHT22;8799;43.594;13.526;2023-05-19T08:58:26;18.90;99.90
17364;DHT22;8799;43.594;13.526;2023-05-19T09:00:55;18.90;99.90
17364;DHT22;8799;43.594;13.526;2023-05-19T09:03:24;18.90;99.90
17364;DHT22;8799;43.594;13.526;2023-05-19T09:05:53;18.90;99.90
17364;DHT22;8799;43.594;13.526;2023-05-19T09:08:20;18.90;99.90
17364;DHT22;8799;43.594;13.526;2023-05-19T09:10:49;18.90;99.90
17364;DHT22;8799;43.594;13.526;2023-05-19T09:13:17;18.90;99.90
17364;DHT22;8799;43.594;13.526;2023-05-19T09:15:46;18.90;99.90
17364;DHT22;8799;43.594;13.526;2023-05-19T09:18:15;18.90;99.90
17364;DHT22;8799;43.594;13.526;2023-05-19T09:20:44;18.90;99.90
17364;DHT22;8799;43.594;13.526;2023-05-19T09:23:14;18.90;99.90
17364;DHT22;8799;43.594;13.526;2023-05-19T09:25:48;18.90;99.90
17364;DHT22;8799;43.594;13.526;2023-05-19T09:28:22;18.90;99.90
17364;DHT22;8799;43.594;13.526;2023-05-19T09:31:00;18.90;99.90
17364;DHT22;8799;43.594;13.526;2023-05-19T09:33:29;18.90;99.90
17364;DHT22;8799;43.594;13.526;2023-05-19T09:35:59;18.90;99.90
17364;DHT22;8799;43.594;13.526;2023-05-19T09:38:28;18.90;99.90
17364;DHT22;8799;43.594;13.526;2023-05-19T09:40:57;18.90;99.90
17364;DHT22;8799;43.594;13.526;2023-05-19T09:43:26;18.90;99.90
17364;DHT22;8799;43.594;13.526;2023-05-19T09:46:01;18.90;99.90
17364;DHT22;8799;43.594;13.526;2023-05-19T09:48:30;18.90;99.90
17364;DHT22;8799;43.594;13.526;2023-05-19T09:50:59;18.80;99.90
17364;DHT22;8799;43.594;13.526;2023-05-19T09:53:29;18.80;99.90
17364;DHT22;8799;43.594;13.526;2023-05-19T09:55:57;18.80;99.90
17364;DHT22;8799;43.594;13.526;2023-05-19T09:58:26;18.90;99.90
17364;DHT22;8799;43.594;13.526;2023-05-19T10:01:00;18.80;99.90
17364;DHT22;8799;43.594;13.526;2023-05-19T10:03:28;18.80;99.90
17364;DHT22;8799;43.594;13.526;2023-05-19T10:05:56;18.80;99.90
17364;DHT22;8799;43.594;13.526;2023-05-19T10:08:25;18.90;99.90
17364;DHT22;8799;43.594;13.526;2023-05-19T10:10:56;18.90;99.90
17364;DHT22;8799;43.594;13.526;2023-05-19T10:13:25;18.90;99.90
17364;DHT22;8799;43.594;13.526;2023-05-19T10:15:53;18.90;99.90
17364;DHT22;8799;43.594;13.526;2023-05-19T10:18:22;18.90;99.90
17364;DHT22;8799;43.594;13.526;2023-05-19T10:20:51;18.90;99.90
17364;DHT22;8799;43.594;13.526;2023-05-19T10:23:20;18.90;99.90
17364;DHT22;8799;43.594;13.526;2023-05-19T10:25:56;18.80;99.90
17364;DHT22;8799;43.594;13.526;2023-05-19T10:28:30;18.90;99.90
17364;DHT22;8799;43.594;13.526;2023-05-19T10:30:59;18.80;99.90
17364;DHT22;8799;43.594;13.526;2023-05-19T10:33:33;18.80;99.90
17364;DHT22;8799;43.594;13.526;2023-05-19T10:36:12;18.80;99.90
17364;DHT22;8799;43.594;13.526;2023-05-19T10:38:47;18.90;99.90
17364;DHT22;8799;43.594;13.526;2023-05-19T10:41:26;18.90;99.90
17364;DHT22;8799;43.594;13.526;2023-05-19T10:44:00;18.90;99.90
17364;DHT22;8799;43.594;13.526;2023-05-19T10:46:33;18.80;99.90
17364;DHT22;8799;43.594;13.526;2023-05-19T10:49:01;18.90;99.90
17364;DHT22;8799;43.594;13.526;2023-05-19T10:51:30;18.80;99.90
17364;DHT22;8799;43.594;13.526;2023-05-19T10:54:00;18.90;99.90
17364;DHT22;8799;43.594;13.526;2023-05-19T10:56:31;18.90;99.90
17364;DHT22;8799;43.594;13.526;2023-05-19T10:59:01;18.80;99.90
17364;DHT22;8799;43.594;13.526;2023-05-19T11:01:30;18.80;99.90
17364;DHT22;8799;43.594;13.526;2023-05-19T11:04:04;18.80;99.90
17364;DHT22;8799;43.594;13.526;2023-05-19T11:06:33;18.80;99.90
17364;DHT22;8799;43.594;13.526;2023-05-19T11:09:11;18.80;99.90
17364;DHT22;8799;43.594;13.526;2023-05-19T11:11:46;18.80;99.90
17364;DHT22;8799;43.594;13.526;2023-05-19T11:14:16;18.80;99.90
17364;DHT22;8799;43.594;13.526;2023-05-19T11:16:46;18.90;99.90
17364;DHT22;8799;43.594;13.526;2023-05-19T11:19:18;18.80;99.90
17364;DHT22;8799;43.594;13.526;2023-05-19T11:21:47;18.80;99.90
17364;DHT22;8799;43.594;13.526;2023-05-19T11:24:35;18.80;99.90
17364;DHT22;8799;43.594;13.526;2023-05-19T11:27:26;18.80;99.90
17364;DHT22;8799;43.594;13.526;2023-05-19T11:29:54;18.80;99.90
17364;DHT22;8799;43.594;13.526;2023-05-19T11:32:26;18.80;99.90
17364;DHT22;8799;43.594;13.526;2023-05-19T11:34:55;18.80;99.90
17364;DHT22;8799;43.594;13.526;2023-05-19T11:37:23;18.80;99.90
17364;DHT22;8799;43.594;13.526;2023-05-19T11:39:50;18.80;99.90
17364;DHT22;8799;43.594;13.526;2023-05-19T11:42:19;18.80;99.90
17364;DHT22;8799;43.594;13.526;2023-05-19T11:44:48;18.80;99.90
17364;DHT22;8799;43.594;13.526;2023-05-19T11:47:16;18.80;99.90
17364;DHT22;8799;43.594;13.526;2023-05-19T11:49:44;18.80;99.90
17364;DHT22;8799;43.594;13.526;2023-05-19T11:52:14;18.80;99.90
17364;DHT22;8799;43.594;13.526;2023-05-19T11:54:47;18.80;99.90
17364;DHT22;8799;43.594;13.526;2023-05-19T11:57:15;18.80;99.90
17364;DHT22;8799;43.594;13.526;2023-05-19T11:59:43;18.90;99.90
17364;DHT22;8799;43.594;13.526;2023-05-19T12:02:18;18.80;99.90
17364;DHT22;8799;43.594;13.526;2023-05-19T12:04:46;18.80;99.90
17364;DHT22;8799;43.594;13.526;2023-05-19T12:07:15;18.90;99.90
17364;DHT22;8799;43.594;13.526;2023-05-19T12:09:44;18.80;99.90
17364;DHT22;8799;43.594;13.526;2023-05-19T12:12:14;18.80;99.90
17364;DHT22;8799;43.594;13.526;2023-05-19T12:14:42;18.80;99.90
17364;DHT22;8799;43.594;13.526;2023-05-19T12:17:11;18.80;99.90
17364;DHT22;8799;43.594;13.526;2023-05-19T12:19:42;18.80;99.90
17364;DHT22;8799;43.594;13.526;2023-05-19T12:22:11;18.80;99.90
17364;DHT22;8799;43.594;13.526;2023-05-19T12:24:40;18.80;99.90
17364;DHT22;8799;43.594;13.526;2023-05-19T12:27:17;18.90;99.90
17364;DHT22;8799;43.594;13.526;2023-05-19T12:29:49;18.90;99.90
17364;DHT22;8799;43.594;13.526;2023-05-19T12:32:17;18.90;99.90
17364;DHT22;8799;43.594;13.526;2023-05-19T12:34:47;18.90;99.90
17364;DHT22;8799;43.594;13.526;2023-05-19T12:37:15;18.90;99.90
17364;DHT22;8799;43.594;13.526;2023-05-19T12:39:44;18.90;99.90
17364;DHT22;8799;43.594;13.526;2023-05-19T12:42:12;18.90;99.90
17364;DHT22;8799;43.594;13.526;2023-05-19T12:44:43;18.90;99.90
17364;DHT22;8799;43.594;13.526;2023-05-19T12:47:12;18.90;99.90
17364;DHT22;8799;43.594;13.526;2023-05-19T12:49:54;18.90;99.90
17364;DHT22;8799;43.594;13.526;2023-05-19T12:52:23;18.90;99.90
17364;DHT22;8799;43.594;13.526;2023-05-19T12:54:57;18.90;99.90
17364;DHT22;8799;43.594;13.526;2023-05-19T12:57:26;18.90;99.90
17364;DHT22;8799;43.594;13.526;2023-05-19T12:59:59;18.90;99.90
17364;DHT22;8799;43.594;13.526;2023-05-19T13:02:27;18.90;99.90
17364;DHT22;8799;43.594;13.526;2023-05-19T13:04:56;18.90;99.90
17364;DHT22;8799;43.594;13.526;2023-05-19T13:07:24;18.90;99.90
17364;DHT22;8799;43.594;13.526;2023-05-19T13:09:52;19.00;99.90
17364;DHT22;8799;43.594;13.526;2023-05-19T13:12:20;19.00;99.90
17364;DHT22;8799;43.594;13.526;2023-05-19T13:14:47;19.00;99.90
17364;DHT22;8799;43.594;13.526;2023-05-19T13:17:16;19.60;99.90
17364;DHT22;8799;43.594;13.526;2023-05-19T13:19:51;19.00;99.90
17364;DHT22;8799;43.594;13.526;2023-05-19T13:22:20;19.00;99.90
17364;DHT22;8799;43.594;13.526;2023-05-19T13:24:48;19.00;99.90
17364;DHT22;8799;43.594;13.526;2023-05-19T13:27:17;19.00;99.90
17364;DHT22;8799;43.594;13.526;2023-05-19T13:29:45;19.00;99.90
17364;DHT22;8799;43.594;13.526;2023-05-19T13:32:14;19.10;99.90
17364;DHT22;8799;43.594;13.526;2023-05-19T13:34:42;19.10;99.90
17364;DHT22;8799;43.594;13.526;2023-05-19T13:37:10;19.10;99.90
17364;DHT22;8799;43.594;13.526;2023-05-19T13:39:40;19.10;99.90
17364;DHT22;8799;43.594;13.526;2023-05-19T13:42:08;19.10;99.90
17364;DHT22;8799;43.594;13.526;2023-05-19T13:44:36;19.10;99.90
17364;DHT22;8799;43.594;13.526;2023-05-19T13:47:04;19.10;99.90
17364;DHT22;8799;43.594;13.526;2023-05-19T13:49:32;19.10;99.90
17364;DHT22;8799;43.594;13.526;2023-05-19T13:51:59;19.10;99.90
17364;DHT22;8799;43.594;13.526;2023-05-19T13:54:27;19.10;99.90
17364;DHT22;8799;43.594;13.526;2023-05-19T13:56:57;19.10;99.90
17364;DHT22;8799;43.594;13.526;2023-05-19T13:59:25;19.20;99.90
17364;DHT22;8799;43.594;13.526;2023-05-19T14:01:52;19.10;99.90
17364;DHT22;8799;43.594;13.526;2023-05-19T14:04:20;19.10;99.90
17364;DHT22;8799;43.594;13.526;2023-05-19T14:06:48;19.20;99.90
17364;DHT22;8799;43.594;13.526;2023-05-19T14:09:16;19.20;99.90
17364;DHT22;8799;43.594;13.526;2023-05-19T14:11:43;19.20;99.90
17364;DHT22;8799;43.594;13.526;2023-05-19T14:14:13;19.20;99.90
17364;DHT22;8799;43.594;13.526;2023-05-19T14:16:41;19.20;99.90
17364;DHT22;8799;43.594;13.526;2023-05-19T14:19:09;19.20;99.90
17364;DHT22;8799;43.594;13.526;2023-05-19T14:21:37;19.20;99.90
17364;DHT22;8799;43.594;13.526;2023-05-19T14:24:05;19.20;99.90
17364;DHT22;8799;43.594;13.526;2023-05-19T14:26:33;19.20;99.90
17364;DHT22;8799;43.594;13.526;2023-05-19T14:29:02;19.20;99.90
17364;DHT22;8799;43.594;13.526;2023-05-19T14:31:32;19.20;99.90
17364;DHT22;8799;43.594;13.526;2023-05-19T14:33:59;19.30;99.90
17364;DHT22;8799;43.594;13.526;2023-05-19T14:36:28;19.30;99.90
17364;DHT22;8799;43.594;13.526;2023-05-19T14:38:57;19.20;99.90
17364;DHT22;8799;43.594;13.526;2023-05-19T14:41:26;19.20;99.90
17364;DHT22;8799;43.594;13.526;2023-05-19T14:43:54;19.30;99.90
17364;DHT22;8799;43.594;13.526;2023-05-19T14:46:21;19.20;99.90
17364;DHT22;8799;43.594;13.526;2023-05-19T14:48:51;19.20;99.90
17364;DHT22;8799;43.594;13.526;2023-05-19T14:51:19;19.30;99.90
17364;DHT22;8799;43.594;13.526;2023-05-19T14:53:47;19.20;99.90
17364;DHT22;8799;43.594;13.526;2023-05-19T14:56:15;19.20;99.90
17364;DHT22;8799;43.594;13.526;2023-05-19T14:58:43;19.20;99.90
17364;DHT22;8799;43.594;13.526;2023-05-19T15:01:12;19.30;99.90
17364;DHT22;8799;43.594;13.526;2023-05-19T15:03:40;19.30;99.90
17364;DHT22;8799;43.594;13.526;2023-05-19T15:06:10;19.30;99.90
17364;DHT22;8799;43.594;13.526;2023-05-19T15:08:38;19.30;99.90
17364;DHT22;8799;43.594;13.526;2023-05-19T15:11:07;19.30;99.90
17364;DHT22;8799;43.594;13.526;2023-05-19T15:13:35;19.30;99.90
17364;DHT22;8799;43.594;13.526;2023-05-19T15:16:03;19.30;99.90
17364;DHT22;8799;43.594;13.526;2023-05-19T15:18:34;19.30;99.90
17364;DHT22;8799;43.594;13.526;2023-05-19T15:21:02;19.30;99.90
17364;DHT22;8799;43.594;13.526;2023-05-19T15:23:31;19.30;99.90
17364;DHT22;8799;43.594;13.526;2023-05-19T15:26:00;19.30;99.90
17364;DHT22;8799;43.594;13.526;2023-05-19T15:28:28;19.30;99.90
17364;DHT22;8799;43.594;13.526;2023-05-19T15:30:56;19.30;99.90
17364;DHT22;8799;43.594;13.526;2023-05-19T15:33:25;19.40;99.90
17364;DHT22;8799;43.594;13.526;2023-05-19T15:35:53;19.40;99.90
17364;DHT22;8799;43.594;13.526;2023-05-19T15:38:21;19.40;99.90
17364;DHT22;8799;43.594;13.526;2023-05-19T15:40:51;19.40;99.90
17364;DHT22;8799;43.594;13.526;2023-05-19T15:43:18;19.40;99.90
17364;DHT22;8799;43.594;13.526;2023-05-19T15:45:46;19.40;99.90
17364;DHT22;8799;43.594;13.526;2023-05-19T15:48:16;19.40;99.90